Time;durP1;ratioP1;P1;durP2;ratioP2;P2;SDS_P1;SDS_P2;PMS_P1;PMS_P2;Temp;Humidity;BMP_temperature;BMP_pressure;BME280_temperature;BME280_humidity;BME280_pressure;Samples;Min_cycle;Max_cycle;Signal;HPM_P1;HPM_P2
2022/06/20 00:00:44;;;;;;;6.78;1.10;;;;;;;12.89;75.45;100366.75;6253863;23;20000;-71
2022/06/20 00:03:23;;;;;;;1.17;0.80;;;;;;;12.83;76.42;100375.28;6254526;22;20008;-72
2022/06/20 00:05:49;;;;;;;2.80;1.27;;;;;;;12.78;76.68;100400.84;6251960;22;20000;-74
2022/06/20 00:08:16;;;;;;;1.50;1.10;;;;;;;12.56;77.39;100395.72;6253396;22;20014;-72
2022/06/20 00:10:51;;;;;;;4.78;1.55;;;;;;;12.35;78.09;100379.31;6254531;23;20081;-73
2022/06/20 00:13:36;;;;;;;1.83;1.30;;;;;;;12.36;78.71;100382.88;6230505;23;20154;-73
2022/06/20 00:16:05;;;;;;;2.47;0.95;;;;;;;12.17;78.65;100368.94;6253353;23;20015;-74
2022/06/20 00:18:43;;;;;;;3.40;1.23;;;;;;;12.21;79.22;100392.78;6262300;22;20000;-75
2022/06/20 00:21:19;;;;;;;4.57;1.30;;;;;;;12.38;78.72;100397.97;6263352;23;20008;-73
2022/06/20 00:23:50;;;;;;;4.68;1.77;;;;;;;12.48;78.07;100397.09;6263871;22;20004;-75
2022/06/20 00:26:36;;;;;;;;;;;;;;;;;;;;;
2022/06/20 00:29:14;;;;;;;1.70;1.08;;;;;;;12.77;76.63;100412.09;6257855;23;20035;-72
2022/06/20 00:31:43;;;;;;;2.08;1.10;;;;;;;12.51;77.04;100403.94;6255593;22;20004;-71
2022/06/20 00:34:10;;;;;;;2.28;1.17;;;;;;;12.30;77.37;100406.75;6254767;23;20008;-71
2022/06/20 00:36:35;;;;;;;1.23;0.90;;;;;;;12.24;77.76;100407.88;6257390;22;20006;-73
2022/06/20 00:39:08;;;;;;;2.92;1.65;;;;;;;12.15;78.52;100398.53;6255095;23;20063;-73
2022/06/20 00:41:44;;;;;;;;;;;;;;;;;;;;;
2022/06/20 00:44:14;;;;;;;2.15;1.10;;;;;;;11.90;79.00;100402.97;6256803;23;20028;-73
2022/06/20 00:46:51;;;;;;;1.77;1.05;;;;;;;11.91;79.50;100399.09;6255010;23;20000;-72
2022/06/20 00:49:23;;;;;;;1.70;0.90;;;;;;;11.95;78.82;100416.66;6256280;23;20055;-72
2022/06/20 00:51:56;;;;;;;4.70;1.40;;;;;;;11.92;79.68;100414.44;6254424;23;20327;-72
2022/06/20 00:55:02;;;;;;;3.53;1.23;;;;;;;11.94;79.64;100403.25;6254168;23;20054;-73
2022/06/20 00:57:38;;;;;;;2.05;0.98;;;;;;;12.08;78.85;100403.53;6256065;22;20039;-70
2022/06/20 01:00:10;;;;;;;3.58;1.40;;;;;;;12.07;78.93;100396.38;6254418;23;20012;-69
2022/06/20 01:02:43;;;;;;;2.70;1.10;;;;;;;12.06;78.68;100395.53;6252351;23;20014;-70
2022/06/20 01:05:24;;;;;;;3.58;1.20;;;;;;;12.08;78.85;100389.81;6254581;22;20397;-71
2022/06/20 01:07:55;;;;;;;1.60;1.10;;;;;;;12.20;78.66;100395.81;6253378;23;20054;-70
2022/06/20 01:10:21;;;;;;;1.08;0.85;;;;;;;12.34;77.77;100407.84;6255065;22;20026;-71
2022/06/20 01:12:56;;;;;;;2.10;1.02;;;;;;;12.41;78.00;100418.50;6227128;23;20032;-71
2022/06/20 01:15:32;;;;;;;3.47;0.85;;;;;;;12.43;77.29;100427.28;6250940;23;20020;-68
2022/06/20 01:17:57;;;;;;;2.50;1.10;;;;;;;12.59;76.68;100441.78;6253342;22;20004;-71
2022/06/20 01:20:38;;;;;;;4.75;0.93;;;;;;;12.73;76.05;100442.84;6225445;23;20142;-70
2022/06/20 01:23:13;;;;;;;3.25;1.20;;;;;;;12.94;74.73;100475.69;6252730;23;20400;-71
2022/06/20 01:25:56;;;;;;;2.38;1.20;;;;;;;13.11;74.39;100458.84;6250468;23;20000;-71
2022/06/20 01:28:27;;;;;;;2.83;1.00;;;;;;;13.31;73.22;100457.91;6254770;22;20004;-69
2022/06/20 01:30:53;;;;;;;4.18;1.42;;;;;;;13.09;73.25;100433.63;6253536;23;20007;-71
2022/06/20 01:33:20;;;;;;;4.90;1.30;;;;;;;13.09;72.88;100453.63;6252490;22;20004;-70
2022/06/20 01:38:32;;;;;;;3.55;1.10;;;;;;;13.23;72.13;100455.78;6248203;23;20093;-70
2022/06/20 01:43:46;;;;;;;2.92;1.35;;;;;;;13.05;72.32;100449.84;6252100;23;20051;-70
2022/06/20 01:46:13;;;;;;;3.38;1.40;;;;;;;13.03;72.62;100463.00;6228444;23;20008;-71
2022/06/20 01:48:43;;;;;;;3.47;1.10;;;;;;;13.02;72.58;100469.59;6256205;22;19996;-71
2022/06/20 01:51:16;;;;;;;3.58;1.00;;;;;;;13.10;71.89;100469.00;6255440;23;20008;-71
2022/06/20 01:53:43;;;;;;;2.25;1.05;;;;;;;13.02;71.90;100450.38;6256175;22;20089;-72
2022/06/20 01:56:13;;;;;;;7.25;1.10;;;;;;;13.05;71.78;100459.97;6254456;23;20019;-71
2022/06/20 01:58:43;;;;;;;1.75;0.75;;;;;;;12.93;71.50;100455.63;6255296;22;20724;-71
2022/06/20 02:01:12;;;;;;;5.07;1.17;;;;;;;13.18;70.64;100453.06;6255925;22;20000;-72
2022/06/20 02:03:45;;;;;;;1.48;0.60;;;;;;;13.33;69.39;100449.41;6253309;23;20003;-74
2022/06/20 02:06:23;;;;;;;6.38;1.38;;;;;;;13.26;69.51;100460.72;6253612;22;20174;-72
2022/06/20 02:08:53;;;;;;;1.52;0.90;;;;;;;13.17;69.36;100462.38;6255500;23;20012;-73
2022/06/20 02:11:26;;;;;;;2.78;1.05;;;;;;;13.07;69.75;100469.59;6255550;23;20000;-72
2022/06/20 02:13:59;;;;;;;4.22;1.00;;;;;;;12.71;70.47;100457.94;6253484;23;20011;-72
2022/06/20 02:16:28;;;;;;;4.63;1.07;;;;;;;12.58;71.71;100468.38;6255059;23;20011;-71
2022/06/20 02:19:02;;;;;;;6.07;1.02;;;;;;;12.42;71.90;100474.19;6256415;22;20260;-71
2022/06/20 02:21:31;;;;;;;3.65;1.05;;;;;;;12.18;72.09;100452.84;6256955;22;19988;-71
2022/06/20 02:24:28;;;;;;;2.03;0.90;;;;;;;12.16;72.54;100455.88;6254344;23;20010;-71
2022/06/20 02:27:01;;;;;;;2.85;0.95;;;;;;;12.26;72.01;100465.97;6253383;23;20012;-71
2022/06/20 02:29:30;;;;;;;3.75;0.77;;;;;;;12.34;71.97;100473.66;6254812;22;20007;-70
2022/06/20 02:32:04;;;;;;;2.17;1.20;;;;;;;12.69;70.83;100474.66;6255805;22;20152;-71
2022/06/20 02:34:31;;;;;;;4.75;1.00;;;;;;;12.87;70.22;100494.38;6254358;23;20004;-70
2022/06/20 02:37:05;;;;;;;4.72;0.93;;;;;;;12.99;69.34;100467.41;6254930;23;20000;-70
2022/06/20 02:39:36;;;;;;;8.57;1.60;;;;;;;13.16;68.50;100482.75;6255986;22;20012;-71
2022/06/20 02:42:13;;;;;;;2.15;0.90;;;;;;;13.16;67.69;100500.03;6255820;23;20295;-71
2022/06/20 02:44:46;;;;;;;5.15;0.77;;;;;;;12.94;68.36;100497.63;6256494;22;20087;-71
2022/06/20 02:47:24;;;;;;;2.83;0.80;;;;;;;12.72;69.25;100504.28;6254175;22;20010;-71
2022/06/20 02:49:56;;;;;;;6.43;1.20;;;;;;;12.73;69.71;100491.38;6254459;23;20099;-71
2022/06/20 02:52:41;;;;;;;2.25;0.95;;;;;;;12.89;68.69;100478.44;6253501;22;20016;-72
2022/06/20 02:55:16;;;;;;;3.25;0.95;;;;;;;13.25;67.82;100503.00;6255914;22;20007;-72
2022/06/20 02:57:49;;;;;;;0.98;0.50;;;;;;;12.99;67.88;100502.28;6253638;23;20327;-71
2022/06/20 03:00:29;;;;;;;;;;;;;;;;;;;;;
2022/06/20 03:03:01;;;;;;;1.48;0.77;;;;;;;12.92;68.76;100494.34;6255335;23;20471;-70
2022/06/20 03:05:27;;;;;;;1.65;0.70;;;;;;;12.84;68.73;100498.50;6253486;22;20004;-71
2022/06/20 03:07:53;;;;;;;3.17;0.82;;;;;;;12.75;69.18;100517.44;6254750;23;20094;-71
2022/06/20 03:10:27;;;;;;;6.25;0.90;;;;;;;12.45;69.97;100529.28;6255178;22;20004;-69
2022/06/20 03:12:56;;;;;;;0.65;0.52;;;;;;;12.35;69.36;100518.34;6253369;23;20058;-71
2022/06/20 03:15:35;;;;;;;;;;;;;;;;;;;;;
2022/06/20 03:18:21;;;;;;;;;;;;;;;;;;;;;
2022/06/20 03:20:47;;;;;;;2.47;0.68;;;;;;;11.62;71.66;100511.97;6254723;23;20024;-71
2022/06/20 03:23:30;;;;;;;3.17;0.95;;;;;;;11.70;72.29;100533.34;6253614;23;20011;-72
2022/06/20 03:26:09;;;;;;;1.88;0.73;;;;;;;11.55;72.03;100533.31;6255596;22;20000;-69
2022/06/20 03:28:35;;;;;;;1.90;0.65;;;;;;;11.56;72.68;100540.44;6253785;22;20003;-71
2022/06/20 03:31:04;;;;;;;1.58;0.90;;;;;;;11.56;72.74;100554.13;6254778;22;20004;-71
2022/06/20 03:33:35;;;;;;;2.20;1.00;;;;;;;11.65;72.54;100537.97;6255656;22;20014;-72
2022/06/20 03:36:13;;;;;;;2.47;0.80;;;;;;;11.78;72.50;100548.41;6254190;23;20082;-70
2022/06/20 03:38:41;;;;;;;4.00;0.70;;;;;;;11.91;71.77;100552.56;6254162;23;20010;-70
2022/06/20 03:41:09;;;;;;;7.68;1.13;;;;;;;12.03;71.06;100575.09;6253745;23;20001;-70
2022/06/20 03:43:40;;;;;;;7.35;1.10;;;;;;;11.96;71.51;100580.00;6254544;23;20006;-73
2022/06/20 03:46:30;;;;;;;4.57;0.70;;;;;;;11.78;71.39;100575.00;6228289;23;20389;-71
2022/06/20 03:49:10;;;;;;;3.55;1.05;;;;;;;11.68;72.36;100592.22;6255270;22;20050;-72
2022/06/20 03:51:44;;;;;;;3.63;1.52;;;;;;;11.42;73.03;100572.16;6253636;22;20068;-73
2022/06/20 03:54:32;;;;;;;2.65;1.05;;;;;;;11.47;72.65;100574.91;6253798;23;20011;-71
2022/06/20 03:57:08;;;;;;;2.15;0.98;;;;;;;11.38;73.20;100571.06;6252992;23;20000;-74
2022/06/20 03:59:52;;;;;;;;;;;;;;;;;;;;;
2022/06/20 04:02:38;;;;;;;3.15;0.90;;;;;;;11.42;73.94;100588.56;6254376;23;20019;-72
2022/06/20 04:05:23;;;;;;;3.80;1.02;;;;;;;11.45;73.97;100574.38;6254606;23;20016;-72
2022/06/20 04:08:00;;;;;;;3.42;1.02;;;;;;;11.84;72.53;100584.88;6253486;23;20003;-72
2022/06/20 04:13:42;;;;;;;2.88;1.10;;;;;;;12.19;70.81;100581.41;6254286;23;20101;-71
2022/06/20 04:16:40;;;;;;;4.35;1.08;;;;;;;11.91;71.60;100569.00;6251613;22;20003;-70
2022/06/20 04:19:20;;;;;;;3.58;1.15;;;;;;;12.14;71.39;100592.38;6253208;23;20000;-71
2022/06/20 04:21:51;;;;;;;4.47;1.08;;;;;;;12.15;71.12;100591.28;6254678;22;20008;-70
2022/06/20 04:24:33;;;;;;;1.60;0.85;;;;;;;12.25;70.67;100587.72;6253092;22;19999;-71
2022/06/20 04:27:13;;;;;;;9.48;1.30;;;;;;;12.50;70.46;100602.53;6254780;22;20431;-70
2022/06/20 04:29:44;;;;;;;1.95;0.82;;;;;;;12.44;69.45;100600.88;6253812;22;19997;-71
2022/06/20 04:32:43;;;;;;;3.28;1.10;;;;;;;12.24;70.44;100605.25;6252302;23;20095;-70
2022/06/20 04:35:44;;;;;;;6.43;1.10;;;;;;;12.14;71.40;100599.78;6250504;23;20702;-70
2022/06/20 04:38:22;;;;;;;3.03;0.63;;;;;;;11.84;71.28;100590.34;6252634;22;19996;-71
2022/06/20 04:40:56;;;;;;;3.47;1.50;;;;;;;11.92;71.45;100600.78;6249682;23;20036;-72
2022/06/20 04:43:52;;;;;;;4.27;1.77;;;;;;;11.85;72.16;100605.72;6252571;22;20004;-71
2022/06/20 04:46:33;;;;;;;6.05;2.00;;;;;;;11.75;71.91;100613.91;6252744;22;20300;-71
2022/06/20 04:49:00;;;;;;;7.45;1.13;;;;;;;11.38;73.21;100591.03;6250964;23;20008;-71
2022/06/20 04:51:38;;;;;;;4.72;1.00;;;;;;;11.24;73.89;100604.38;6254081;22;20023;-71
2022/06/20 04:54:13;;;;;;;4.65;1.40;;;;;;;11.24;74.32;100587.13;6252024;22;20027;-71
2022/06/20 04:56:41;;;;;;;;;;;;;;;11.35;73.71;100600.59;6253789;23;20019;-71
2022/06/20 04:59:14;;;;;;;8.48;1.25;;;;;;;11.14;75.14;100583.25;6249946;23;20013;-71
2022/06/20 05:01:40;;;;;;;5.97;2.25;;;;;;;11.17;75.53;100590.13;6250875;23;20000;-72
2022/06/20 05:04:28;;;;;;;7.15;1.35;;;;;;;11.43;75.21;100612.13;6250723;23;20552;-71
2022/06/20 05:07:04;;;;;;;4.47;1.15;;;;;;;11.35;75.25;100611.56;6251067;23;20439;-71
2022/06/20 05:09:45;;;;;;;7.80;1.63;;;;;;;11.46;75.05;100590.53;6253846;22;20004;-72
2022/06/20 05:12:23;;;;;;;4.82;1.25;;;;;;;11.55;74.67;100615.50;6219673;23;20024;-71
2022/06/20 05:14:56;;;;;;;;;;;;;;;11.63;74.60;100620.44;6222540;23;20000;-73
2022/06/20 05:17:27;;;;;;;5.07;1.98;;;;;;;11.61;74.58;100614.41;6220835;23;19908;-71
2022/06/20 05:20:02;;;;;;;8.82;1.35;;;;;;;11.69;74.26;100611.13;6222456;23;20048;-72
2022/06/20 05:22:39;;;;;;;5.15;1.20;;;;;;;12.11;73.53;100623.06;6222200;23;20009;-71
2022/06/20 05:25:08;;;;;;;4.05;1.10;;;;;;;12.13;72.91;100611.81;6222220;23;20005;-72
2022/06/20 05:27:54;;;;;;;7.03;1.80;;;;;;;12.37;71.92;100631.34;6221073;23;20005;-71
2022/06/20 05:30:27;;;;;;;5.50;1.45;;;;;;;12.24;72.10;100629.94;6221852;23;20056;-71
2022/06/20 05:33:10;;;;;;;4.78;1.30;;;;;;;12.44;72.22;100636.53;6219109;23;20007;-72
2022/06/20 05:35:47;;;;;;;3.60;1.10;;;;;;;12.53;71.68;100623.94;6220102;23;19993;-72
2022/06/20 05:38:26;;;;;;;3.58;1.10;;;;;;;13.00;70.07;100650.22;6221623;23;20023;-70
2022/06/20 05:41:00;;;;;;;2.08;0.88;;;;;;;12.82;70.63;100634.34;6220031;23;20027;-71
2022/06/20 05:43:31;;;;;;;7.20;1.50;;;;;;;12.96;70.43;100646.41;6221494;23;20032;-71
2022/06/20 05:46:19;;;;;;;3.72;1.30;;;;;;;13.24;69.82;100650.47;6220083;23;20012;-71
2022/06/20 05:48:51;;;;;;;5.63;1.88;;;;;;;13.47;69.28;100661.16;6219262;23;20008;-70
2022/06/20 05:51:19;;;;;;;10.85;1.25;;;;;;;13.43;68.71;100653.47;6220590;23;20011;-71
2022/06/20 05:53:50;;;;;;;6.68;1.30;;;;;;;13.46;68.96;100657.56;6219713;23;20017;-70
2022/06/20 05:56:24;;;;;;;2.80;0.88;;;;;;;13.39;69.22;100659.78;6219486;23;20020;-69
2022/06/20 05:58:52;;;;;;;5.07;1.15;;;;;;;13.20;70.00;100649.38;6222817;23;20039;-71
2022/06/20 06:01:30;;;;;;;5.13;1.25;;;;;;;13.02;70.77;100644.47;6219113;23;20009;-70
2022/06/20 06:03:58;;;;;;;8.10;1.58;;;;;;;13.00;70.79;100661.22;6222139;23;20008;-68
2022/06/20 06:06:39;;;;;;;5.43;1.40;;;;;;;12.90;71.55;100659.28;6220203;23;20004;-69
2022/06/20 06:09:24;;;;;;;5.05;1.10;;;;;;;12.83;71.39;100639.53;6221380;23;20001;-70
2022/06/20 06:11:56;;;;;;;3.72;1.05;;;;;;;13.00;72.12;100661.22;6218898;23;20001;-70
2022/06/20 06:14:52;;;;;;;3.63;1.25;;;;;;;13.02;71.46;100661.75;6220200;23;20316;-69
2022/06/20 06:17:33;;;;;;;8.93;1.40;;;;;;;13.08;71.40;100668.91;6217760;23;20012;-71
2022/06/20 06:20:07;;;;;;;5.18;1.58;;;;;;;13.13;71.07;100648.00;6221643;23;20005;-71
2022/06/20 06:22:43;;;;;;;8.95;1.17;;;;;;;13.25;70.71;100656.78;6220928;23;20000;-71
2022/06/20 06:25:24;;;;;;;3.40;1.35;;;;;;;13.21;70.71;100650.19;6223530;23;20012;-70
2022/06/20 06:27:57;;;;;;;3.85;1.20;;;;;;;13.36;69.91;100661.19;6221635;23;20051;-71
2022/06/20 06:30:28;;;;;;;4.53;1.48;;;;;;;13.35;69.04;100651.28;6223279;23;20067;-71
2022/06/20 06:33:09;;;;;;;3.90;1.20;;;;;;;13.51;69.01;100671.31;6222886;23;20003;-71
2022/06/20 06:35:47;;;;;;;5.32;1.35;;;;;;;13.55;69.01;100668.81;6224766;23;20606;-73
2022/06/20 06:38:26;;;;;;;8.65;1.25;;;;;;;13.51;68.37;100660.31;6222538;23;20012;-70
2022/06/20 06:41:17;;;;;;;3.08;1.55;;;;;;;13.70;69.17;100674.25;6224626;23;20003;-72
2022/06/20 06:43:51;;;;;;;4.43;1.45;;;;;;;13.79;68.22;100667.06;6221436;23;20035;-70
2022/06/20 06:46:32;;;;;;;1.85;1.10;;;;;;;13.87;67.76;100668.41;6224811;23;20000;-70
2022/06/20 06:49:25;;;;;;;1.85;1.02;;;;;;;14.05;67.61;100686.19;6225103;23;20000;-71
2022/06/20 06:52:32;;;;;;;6.60;1.70;;;;;;;14.23;67.40;100683.88;6227700;23;20345;-75
2022/06/20 06:59:25;;;;;;;4.72;1.33;;;;;;;14.58;65.37;100688.31;6165484;23;20029;-72
2022/06/20 07:01:54;;;;;;;3.95;1.33;;;;;;;14.62;64.10;100663.84;6167358;23;20056;-73
2022/06/20 07:04:52;;;;;;;5.03;1.17;;;;;;;14.78;63.44;100665.34;6217696;23;20015;-78
2022/06/20 07:07:36;;;;;;;3.08;1.08;;;;;;;14.88;63.93;100680.13;6227187;23;20015;-77
2022/06/20 07:10:13;;;;;;;3.97;1.38;;;;;;;14.78;63.65;100676.38;6223324;23;20011;-75
2022/06/20 07:13:13;;;;;;;;;;;;;;;;;;;;;
2022/06/20 07:15:48;;;;;;;3.65;1.10;;;;;;;14.78;63.31;100657.09;6223200;23;20028;-76
2022/06/20 07:18:40;;;;;;;4.53;1.30;;;;;;;15.06;63.06;100686.88;6225019;23;20055;-76
2022/06/20 07:21:08;;;;;;;9.18;1.73;;;;;;;15.12;62.63;100692.03;6223625;23;20072;-75
2022/06/20 07:23:34;;;;;;;7.35;1.08;;;;;;;15.06;62.70;100682.19;6221612;23;20012;-76
2022/06/20 07:26:02;;;;;;;4.88;1.92;;;;;;;14.96;62.20;100683.09;6223902;23;20015;-75
2022/06/20 07:29:08;;;;;;;;;;;;;;;;;;;;;
2022/06/20 07:31:49;;;;;;;3.00;1.35;;;;;;;15.05;61.65;100677.78;6224896;23;20016;-74
2022/06/20 07:34:17;;;;;;;4.97;1.50;;;;;;;15.02;61.10;100681.13;6223576;23;20004;-75
2022/06/20 07:37:18;;;;;;;3.55;1.20;;;;;;;15.09;61.70;100676.09;6223241;23;20389;-75
2022/06/20 07:40:19;;;;;;;8.27;1.55;;;;;;;15.43;60.54;100697.22;6225000;23;20086;-74
2022/06/20 07:43:00;;;;;;;3.05;1.10;;;;;;;15.52;60.04;100678.97;6164144;23;20005;-74
2022/06/20 07:45:31;;;;;;;1.50;0.90;;;;;;;15.65;59.83;100684.88;6158215;23;20009;-74
2022/06/20 07:48:34;;;;;;;;;;;;;;;;;;;;;
2022/06/20 07:51:34;;;;;;;1.88;0.82;;;;;;;16.05;58.72;100702.88;6193200;23;20061;-74
2022/06/20 07:54:29;;;;;;;3.67;1.23;;;;;;;16.21;58.37;100689.69;6144491;23;20344;-74
2022/06/20 07:57:22;;;;;;;3.67;1.23;;;;;;;16.35;56.68;100688.94;6222308;23;20004;-75
2022/06/20 08:00:22;;;;;;;3.92;0.98;;;;;;;16.78;55.61;100704.56;6222464;23;20020;-75
2022/06/20 08:03:18;;;;;;;2.28;1.13;;;;;;;16.92;54.82;100703.53;6223499;23;20461;-74
2022/06/20 08:05:50;;;;;;;2.47;1.02;;;;;;;17.10;53.34;100692.75;6212828;23;20527;-76
2022/06/20 08:11:57;;;;;;;2.80;0.98;;;;;;;17.31;52.84;100703.44;6222076;23;20009;-74
2022/06/20 08:14:36;;;;;;;2.85;0.90;;;;;;;17.43;51.93;100706.50;6211524;23;20068;-74
2022/06/20 08:17:08;;;;;;;4.03;1.10;;;;;;;17.42;50.71;100707.63;6222889;23;20027;-75
2022/06/20 08:19:34;;;;;;;4.38;0.82;;;;;;;17.52;51.26;100721.28;6224571;23;20004;-74
2022/06/20 08:22:09;;;;;;;4.15;0.80;;;;;;;17.74;50.79;100712.28;6224303;23;19997;-74
2022/06/20 08:24:52;;;;;;;2.17;1.02;;;;;;;18.13;50.63;100730.28;6223247;23;20012;-75
2022/06/20 08:27:29;;;;;;;3.75;1.00;;;;;;;18.55;49.68;100721.91;6222895;23;20007;-74
2022/06/20 08:30:21;;;;;;;4.20;0.93;;;;;;;18.86;48.92;100723.13;6220904;23;20064;-74
2022/06/20 08:33:01;;;;;;;3.25;1.20;;;;;;;19.34;47.11;100744.66;6223667;23;20009;-76
2022/06/20 08:35:42;;;;;;;2.10;1.00;;;;;;;19.54;46.00;100743.28;6224912;23;20006;-76
2022/06/20 08:38:38;;;;;;;6.00;0.93;;;;;;;19.29;46.04;100736.44;6221640;23;19997;-74
2022/06/20 08:41:19;;;;;;;;;;;;;;;;;;;;;
2022/06/20 08:44:11;;;;;;;;;;;;;;;;;;;;;
2022/06/20 08:46:56;;;;;;;3.55;1.25;;;;;;;18.52;47.30;100702.34;6224295;23;20047;-74
2022/06/20 08:49:28;;;;;;;1.88;1.02;;;;;;;18.57;46.43;100739.00;6222864;23;20000;-74
2022/06/20 08:52:34;;;;;;;1.92;0.77;;;;;;;18.45;47.12;100744.28;6223091;23;20392;-75
2022/06/20 08:55:14;;;;;;;1.30;0.60;;;;;;;18.44;47.33;100750.94;6223811;23;20024;-76
2022/06/20 08:58:09;;;;;;;1.48;0.77;;;;;;;18.41;47.04;100738.56;6224156;23;20131;-75
2022/06/20 09:01:32;;;;;;;4.25;0.82;;;;;;;18.57;47.83;100752.84;6222922;23;20062;-73
2022/06/20 09:04:30;;;;;;;2.33;0.88;;;;;;;18.51;47.69;100745.78;6222083;23;20300;-76
2022/06/20 09:07:34;;;;;;;2.30;0.90;;;;;;;18.53;47.12;100754.63;6224709;23;20004;-78
2022/06/20 09:10:07;;;;;;;1.33;0.73;;;;;;;18.48;47.07;100754.72;6223277;23;20027;-74
2022/06/20 09:12:38;;;;;;;3.65;0.80;;;;;;;18.43;47.78;100741.03;6223102;23;19984;-75
2022/06/20 09:15:24;;;;;;;2.15;0.93;;;;;;;18.50;47.84;100744.19;6223976;23;20001;-75
2022/06/20 09:18:05;;;;;;;6.47;1.13;;;;;;;18.62;48.42;100747.22;6222905;23;20039;-75
2022/06/20 09:20:39;;;;;;;3.47;0.75;;;;;;;18.77;47.47;100756.28;6223283;23;20005;-75
2022/06/20 09:23:16;;;;;;;1.27;0.55;;;;;;;18.86;47.25;100750.81;6223031;23;20423;-75
2022/06/20 09:26:02;;;;;;;2.15;0.88;;;;;;;18.94;47.27;100753.69;6223758;23;20012;-76
2022/06/20 09:28:46;;;;;;;3.08;0.88;;;;;;;18.96;46.08;100751.41;6222599;23;20079;-72
2022/06/20 09:31:31;;;;;;;3.97;0.95;;;;;;;19.04;46.59;100751.78;6222471;23;20023;-76
2022/06/20 09:34:09;;;;;;;1.13;0.60;;;;;;;18.99;45.33;100745.22;6220421;23;20000;-74
2022/06/20 09:37:12;;;;;;;2.17;1.02;;;;;;;19.04;45.28;100760.94;6223015;23;20004;-75
2022/06/20 09:40:09;;;;;;;3.80;0.80;;;;;;;19.00;45.25;100730.25;6224431;23;20092;-76
2022/06/20 09:42:54;;;;;;;2.17;0.60;;;;;;;19.20;45.23;100728.09;6226399;23;20011;-75
2022/06/20 09:45:40;;;;;;;;;;;;;;;;;;;;;
2022/06/20 09:48:10;;;;;;;1.70;0.88;;;;;;;19.90;44.92;100745.09;6225716;23;20633;-76
2022/06/20 09:50:50;;;;;;;1.33;0.60;;;;;;;20.04;44.61;100733.88;6223420;23;20027;-75
2022/06/20 09:53:43;;;;;;;1.75;0.60;;;;;;;20.20;43.78;100745.34;6219541;23;20032;-75
2022/06/20 09:56:19;;;;;;;3.40;0.98;;;;;;;20.19;44.15;100729.81;6222602;23;20110;-75
2022/06/20 09:59:36;;;;;;;;;;;;;;;;;;;;;
2022/06/20 10:02:54;;;;;;;2.50;0.70;;;;;;;21.24;42.61;100727.03;6202379;23;20027;-75
2022/06/20 10:09:14;;;;;;;3.40;1.30;;;;;;;21.75;41.13;100727.22;6196732;23;20005;-75
2022/06/20 10:12:02;;;;;;;10.38;2.72;;;;;;;22.38;39.63;100746.84;6227482;23;20040;-77
2022/06/20 10:14:53;;;;;;;6.85;1.83;;;;;;;23.81;36.14;100741.19;6228367;23;20011;-75
2022/06/20 10:17:30;;;;;;;2.25;1.00;;;;;;;25.31;33.84;100751.72;6227994;23;20339;-74
2022/06/20 10:20:18;;;;;;;5.38;0.93;;;;;;;27.04;31.49;100752.97;6228380;23;20015;-74
2022/06/20 10:22:49;;;;;;;0.65;0.47;;;;;;;28.30;29.13;100758.78;6225588;23;20066;-76
2022/06/20 10:25:21;;;;;;;3.05;1.30;;;;;;;29.08;27.83;100755.34;6226039;23;20008;-75
2022/06/20 10:28:23;;;;;;;2.03;0.85;;;;;;;29.17;27.99;100746.59;6226694;23;20054;-75
2022/06/20 10:31:09;;;;;;;2.95;1.00;;;;;;;29.58;27.33;100752.28;6213160;23;20004;-75
2022/06/20 10:34:02;;;;;;;1.88;0.75;;;;;;;30.12;25.67;100737.81;6192614;23;20040;-73
2022/06/20 10:36:52;;;;;;;3.97;1.02;;;;;;;30.63;26.09;100750.22;6227365;23;20001;-75
2022/06/20 10:39:58;;;;;;;1.85;0.77;;;;;;;32.57;24.38;100754.44;6225430;23;19993;-75
2022/06/20 10:42:46;;;;;;;1.88;0.85;;;;;;;32.76;23.00;100756.78;6189358;23;20004;-74
2022/06/20 10:45:27;;;;;;;3.92;1.10;;;;;;;33.90;21.49;100756.50;6224361;23;20053;-75
2022/06/20 10:47:52;;;;;;;3.67;0.60;;;;;;;34.85;21.09;100749.38;6223177;23;20005;-74
2022/06/20 10:50:33;;;;;;;3.17;0.63;;;;;;;35.61;20.10;100759.66;6223066;23;20017;-74
2022/06/20 10:53:32;;;;;;;2.58;0.93;;;;;;;36.91;18.94;100746.66;6223634;23;20114;-75
2022/06/20 10:56:13;;;;;;;1.38;0.80;;;;;;;37.63;18.40;100750.69;6221345;23;20019;-73
2022/06/20 10:58:57;;;;;;;2.50;0.85;;;;;;;38.49;16.56;100749.66;6223277;23;20001;-74
2022/06/20 11:01:37;;;;;;;1.63;0.68;;;;;;;38.91;16.87;100743.94;6225815;23;20027;-75
2022/06/20 11:04:50;;;;;;;4.05;1.08;;;;;;;39.43;15.48;100757.00;6222192;23;20015;-75
2022/06/20 11:07:27;;;;;;;1.90;0.75;;;;;;;39.39;15.56;100739.16;6222567;23;20005;-73
2022/06/20 11:10:33;;;;;;;2.38;0.70;;;;;;;39.51;15.18;100742.47;6222636;23;20000;-74
2022/06/20 11:13:15;;;;;;;3.22;0.80;;;;;;;40.40;15.02;100770.03;6218053;23;20011;-74
2022/06/20 11:15:53;;;;;;;4.63;1.13;;;;;;;41.70;14.00;100773.59;6221653;23;20004;-76
2022/06/20 11:18:53;;;;;;;1.55;0.70;;;;;;;40.94;14.05;100762.31;6223472;23;20004;-75
2022/06/20 11:21:36;;;;;;;1.52;0.82;;;;;;;39.86;14.69;100771.13;6224068;23;20446;-75
2022/06/20 11:24:11;;;;;;;;;;;;;;;41.32;14.38;100769.00;6225539;23;20075;-75
2022/06/20 11:26:45;;;;;;;2.35;0.63;;;;;;;42.58;14.26;100774.28;6223603;23;19974;-72
2022/06/20 11:29:36;;;;;;;0.90;0.50;;;;;;;43.51;13.31;100755.47;6222902;23;20072;-74
2022/06/20 11:32:44;;;;;;;2.40;0.50;;;;;;;43.49;12.92;100754.34;6224217;23;20027;-74
2022/06/20 11:35:24;;;;;;;1.33;0.50;;;;;;;44.19;12.20;100754.03;6206111;23;20011;-75
2022/06/20 11:50:31;;;;;;;;;;;;;;;;;;;;;
2022/06/20 11:53:08;;;;;;;2.70;0.68;;;;;;;45.46;10.77;100753.59;6226101;23;20034;-75
2022/06/20 11:55:37;;;;;;;1.42;0.68;;;;;;;46.09;10.23;100747.31;6193327;23;20015;-76
2022/06/20 11:58:09;;;;;;;1.73;0.60;;;;;;;46.54;10.65;100740.44;6219943;23;20305;-76
2022/06/20 12:01:09;;;;;;;2.58;0.80;;;;;;;47.47;10.35;100739.31;6219361;23;20000;-75
2022/06/20 12:03:46;;;;;;;3.22;0.80;;;;;;;48.51;9.72;100742.84;6192768;23;20005;-75
2022/06/20 12:06:30;;;;;;;1.75;0.70;;;;;;;48.92;8.50;100742.31;6192525;23;20008;-76
2022/06/20 12:09:33;;;;;;;3.05;0.82;;;;;;;48.99;8.93;100741.78;6217657;23;20259;-75
2022/06/20 12:12:08;;;;;;;;;;;;;;;49.85;8.44;100734.41;6189521;23;20073;-75
2022/06/20 12:14:58;;;;;;;1.80;0.70;;;;;;;50.00;8.46;100719.56;6194214;23;19930;-74
2022/06/20 12:23:58;;;;;;;2.38;0.95;;;;;;;51.11;7.34;100723.44;6218517;23;20039;-76
2022/06/20 12:26:32;;;;;;;5.25;1.60;;;;;;;51.32;7.47;100720.88;6218656;23;20004;-77
2022/06/20 12:29:00;;;;;;;5.55;1.73;;;;;;;51.88;7.42;100716.44;6217554;23;20056;-75
2022/06/20 12:32:07;;;;;;;;;;;;;;;;;;;;;
2022/06/20 12:34:54;;;;;;;6.80;1.13;;;;;;;53.56;6.24;100714.03;6224476;23;20027;-84
2022/06/20 13:06:53;;;;;;;2.08;0.55;;;;;;;58.27;3.54;100676.50;5984179;24;20065;-77
2022/06/20 13:27:38;;;;;;;;;;;;;;;;;;;;;
2022/06/20 14:46:59;;;;;;;;;;;;;;;;;;;;;
2022/06/20 14:50:02;;;;;;;2.95;0.60;;;;;;;57.13;4.06;100570.72;6117048;23;20493;-77
2022/06/20 14:59:42;;;;;;;3.28;0.85;;;;;;;56.04;4.27;100581.13;6127457;23;20459;-76
2022/06/20 15:02:35;;;;;;;;;;;;;;;;;;;;;
2022/06/20 15:05:46;;;;;;;0.98;0.70;;;;;;;55.95;4.42;100573.69;6129553;23;20040;-76
2022/06/20 15:08:22;;;;;;;0.70;0.50;;;;;;;55.97;4.47;100577.59;6161821;23;20012;-76
2022/06/20 15:11:00;;;;;;;0.55;0.47;;;;;;;55.56;4.68;100575.75;6164183;23;20414;-74
2022/06/20 15:14:10;;;;;;;0.75;0.47;;;;;;;55.76;4.53;100551.38;6191179;23;20388;-77
2022/06/20 15:17:13;;;;;;;;;;;;;;;;;;;;;
2022/06/20 15:20:35;;;;;;;;;;;;;;;;;;;;;
2022/06/20 15:23:29;;;;;;;;;;;;;;;;;;;;;
2022/06/20 15:26:02;;;;;;;1.92;0.82;;;;;;;54.49;4.87;100545.38;6190366;23;20021;-75
2022/06/20 15:28:58;;;;;;;0.85;0.50;;;;;;;54.52;5.04;100567.63;6164271;23;20020;-77
2022/06/20 15:31:54;;;;;;;1.17;0.50;;;;;;;54.28;4.94;100532.94;6163381;23;20054;-76
2022/06/20 15:41:48;;;;;;;0.95;0.60;;;;;;;53.54;5.47;100547.28;6064384;23;20022;-75
2022/06/20 15:44:47;;;;;;;;;;;;;;;;;;;;;
2022/06/20 15:47:41;;;;;;;1.23;0.60;;;;;;;53.20;5.13;100518.84;6166964;23;20092;-76
2022/06/20 15:50:24;;;;;;;0.80;0.50;;;;;;;52.63;5.73;100518.44;6164046;23;20446;-75
2022/06/20 15:53:05;;;;;;;1.13;0.50;;;;;;;52.28;5.63;100535.03;6163122;23;20083;-77
2022/06/20 15:56:04;;;;;;;0.85;0.52;;;;;;;52.08;5.64;100531.44;6187667;23;20005;-76